sensor_id;sensor_type;location;lat;lon;timestamp;P1;durP1;ratioP1;P2;durP2;ratioP2
20619;SDS011;10469;42.720;23.252;2022-09-29T00:00:34;5.88;;;2.33;;
20619;SDS011;10469;42.720;23.252;2022-09-29T00:03:00;4.00;;;2.40;;
20619;SDS011;10469;42.720;23.252;2022-09-29T00:05:26;3.08;;;2.08;;
20619;SDS011;10469;42.720;23.252;2022-09-29T00:07:51;9.63;;;2.60;;
20619;SDS011;10469;42.720;23.252;2022-09-29T00:10:17;6.57;;;2.20;;
20619;SDS011;10469;42.720;23.252;2022-09-29T00:12:42;3.88;;;1.98;;
20619;SDS011;10469;42.720;23.252;2022-09-29T00:15:08;3.50;;;2.22;;
20619;SDS011;10469;42.720;23.252;2022-09-29T00:17:34;7.85;;;2.35;;
20619;SDS011;10469;42.720;23.252;2022-09-29T00:19:59;4.18;;;2.30;;
20619;SDS011;10469;42.720;23.252;2022-09-29T00:22:25;4.50;;;2.22;;
20619;SDS011;10469;42.720;23.252;2022-09-29T00:24:50;4.50;;;2.17;;
20619;SDS011;10469;42.720;23.252;2022-09-29T00:27:16;4.97;;;2.42;;
20619;SDS011;10469;42.720;23.252;2022-09-29T00:29:43;9.32;;;2.40;;
20619;SDS011;10469;42.720;23.252;2022-09-29T00:32:09;5.85;;;2.28;;
20619;SDS011;10469;42.720;23.252;2022-09-29T00:34:35;4.05;;;2.25;;
20619;SDS011;10469;42.720;23.252;2022-09-29T00:37:00;5.65;;;2.70;;
20619;SDS011;10469;42.720;23.252;2022-09-29T00:39:26;9.45;;;2.72;;
20619;SDS011;10469;42.720;23.252;2022-09-29T00:41:51;5.28;;;2.40;;
20619;SDS011;10469;42.720;23.252;2022-09-29T00:52:12;2.92;;;2.40;;
20619;SDS011;10469;42.720;23.252;2022-09-29T00:54:49;4.53;;;2.72;;
20619;SDS011;10469;42.720;23.252;2022-09-29T00:57:20;4.25;;;2.58;;
20619;SDS011;10469;42.720;23.252;2022-09-29T00:59:51;4.35;;;2.25;;
20619;SDS011;10469;42.720;23.252;2022-09-29T01:02:22;5.07;;;2.90;;
20619;SDS011;10469;42.720;23.252;2022-09-29T01:04:48;3.60;;;2.60;;
20619;SDS011;10469;42.720;23.252;2022-09-29T01:07:18;6.85;;;2.70;;
20619;SDS011;10469;42.720;23.252;2022-09-29T01:09:46;3.42;;;2.47;;
20619;SDS011;10469;42.720;23.252;2022-09-29T01:12:15;5.03;;;2.38;;
20619;SDS011;10469;42.720;23.252;2022-09-29T01:14:40;6.25;;;2.63;;
20619;SDS011;10469;42.720;23.252;2022-09-29T01:17:07;6.95;;;2.70;;
20619;SDS011;10469;42.720;23.252;2022-09-29T01:24:54;6.85;;;2.70;;
20619;SDS011;10469;42.720;23.252;2022-09-29T01:27:36;9.15;;;2.80;;
20619;SDS011;10469;42.720;23.252;2022-09-29T01:33:08;4.15;;;2.85;;
20619;SDS011;10469;42.720;23.252;2022-09-29T01:35:51;3.03;;;2.38;;
20619;SDS011;10469;42.720;23.252;2022-09-29T01:46:41;5.63;;;2.85;;
20619;SDS011;10469;42.720;23.252;2022-09-29T01:49:11;4.23;;;2.57;;
20619;SDS011;10469;42.720;23.252;2022-09-29T01:51:40;5.82;;;2.72;;
20619;SDS011;10469;42.720;23.252;2022-09-29T01:54:13;5.20;;;2.95;;
20619;SDS011;10469;42.720;23.252;2022-09-29T01:56:55;6.05;;;2.97;;
20619;SDS011;10469;42.720;23.252;2022-09-29T01:59:37;4.75;;;3.20;;
20619;SDS011;10469;42.720;23.252;2022-09-29T02:02:20;11.15;;;3.30;;
20619;SDS011;10469;42.720;23.252;2022-09-29T02:04:56;8.07;;;3.60;;
20619;SDS011;10469;42.720;23.252;2022-09-29T02:07:28;5.97;;;3.35;;
20619;SDS011;10469;42.720;23.252;2022-09-29T02:10:02;5.28;;;2.95;;
20619;SDS011;10469;42.720;23.252;2022-09-29T02:12:34;5.35;;;3.53;;
20619;SDS011;10469;42.720;23.252;2022-09-29T02:15:03;9.38;;;3.97;;
20619;SDS011;10469;42.720;23.252;2022-09-29T02:17:51;10.05;;;3.47;;
20619;SDS011;10469;42.720;23.252;2022-09-29T02:20:19;5.55;;;3.40;;
20619;SDS011;10469;42.720;23.252;2022-09-29T02:22:46;9.95;;;4.22;;
20619;SDS011;10469;42.720;23.252;2022-09-29T02:25:13;10.02;;;4.47;;
20619;SDS011;10469;42.720;23.252;2022-09-29T02:27:42;6.63;;;4.05;;
20619;SDS011;10469;42.720;23.252;2022-09-29T02:30:11;10.70;;;4.80;;
20619;SDS011;10469;42.720;23.252;2022-09-29T02:32:37;12.10;;;3.58;;
20619;SDS011;10469;42.720;23.252;2022-09-29T02:35:19;9.55;;;3.67;;
20619;SDS011;10469;42.720;23.252;2022-09-29T02:37:48;9.52;;;3.58;;
20619;SDS011;10469;42.720;23.252;2022-09-29T02:43:54;7.55;;;3.80;;
20619;SDS011;10469;42.720;23.252;2022-09-29T02:55:30;6.68;;;4.00;;
20619;SDS011;10469;42.720;23.252;2022-09-29T02:58:06;5.60;;;3.30;;
20619;SDS011;10469;42.720;23.252;2022-09-29T03:00:51;12.95;;;3.53;;
20619;SDS011;10469;42.720;23.252;2022-09-29T03:03:18;7.05;;;3.17;;
20619;SDS011;10469;42.720;23.252;2022-09-29T03:05:44;10.65;;;3.30;;
20619;SDS011;10469;42.720;23.252;2022-09-29T03:08:10;11.35;;;3.63;;
20619;SDS011;10469;42.720;23.252;2022-09-29T03:10:35;8.07;;;3.05;;
20619;SDS011;10469;42.720;23.252;2022-09-29T03:13:11;9.18;;;3.38;;
20619;SDS011;10469;42.720;23.252;2022-09-29T03:15:38;12.20;;;3.40;;
20619;SDS011;10469;42.720;23.252;2022-09-29T03:18:04;7.30;;;3.85;;
20619;SDS011;10469;42.720;23.252;2022-09-29T03:20:31;15.25;;;3.40;;
20619;SDS011;10469;42.720;23.252;2022-09-29T03:22:57;4.47;;;3.13;;
20619;SDS011;10469;42.720;23.252;2022-09-29T03:25:23;10.40;;;3.65;;
20619;SDS011;10469;42.720;23.252;2022-09-29T03:27:49;9.80;;;3.95;;
20619;SDS011;10469;42.720;23.252;2022-09-29T03:30:15;8.90;;;3.53;;
20619;SDS011;10469;42.720;23.252;2022-09-29T03:32:42;6.20;;;4.30;;
20619;SDS011;10469;42.720;23.252;2022-09-29T03:35:08;9.90;;;3.60;;
20619;SDS011;10469;42.720;23.252;2022-09-29T03:37:34;8.48;;;3.53;;
20619;SDS011;10469;42.720;23.252;2022-09-29T03:40:00;7.65;;;3.75;;
20619;SDS011;10469;42.720;23.252;2022-09-29T03:42:26;12.02;;;3.53;;
20619;SDS011;10469;42.720;23.252;2022-09-29T03:44:52;7.70;;;4.05;;
20619;SDS011;10469;42.720;23.252;2022-09-29T03:47:18;7.07;;;3.30;;
20619;SDS011;10469;42.720;23.252;2022-09-29T03:49:44;7.65;;;3.70;;
20619;SDS011;10469;42.720;23.252;2022-09-29T03:52:09;9.73;;;4.53;;
20619;SDS011;10469;42.720;23.252;2022-09-29T03:54:35;6.70;;;3.30;;
20619;SDS011;10469;42.720;23.252;2022-09-29T03:57:00;11.02;;;3.60;;
20619;SDS011;10469;42.720;23.252;2022-09-29T03:59:26;7.93;;;3.58;;
20619;SDS011;10469;42.720;23.252;2022-09-29T04:01:51;6.00;;;3.50;;
20619;SDS011;10469;42.720;23.252;2022-09-29T04:04:17;11.90;;;3.30;;
20619;SDS011;10469;42.720;23.252;2022-09-29T04:06:44;10.13;;;2.88;;
20619;SDS011;10469;42.720;23.252;2022-09-29T04:09:09;8.13;;;3.58;;
20619;SDS011;10469;42.720;23.252;2022-09-29T04:11:35;6.90;;;3.17;;
20619;SDS011;10469;42.720;23.252;2022-09-29T04:14:00;4.60;;;3.10;;
20619;SDS011;10469;42.720;23.252;2022-09-29T04:16:26;9.20;;;3.28;;
20619;SDS011;10469;42.720;23.252;2022-09-29T04:18:51;6.53;;;2.95;;
20619;SDS011;10469;42.720;23.252;2022-09-29T04:21:17;9.18;;;3.30;;
20619;SDS011;10469;42.720;23.252;2022-09-29T04:23:42;11.45;;;3.17;;
20619;SDS011;10469;42.720;23.252;2022-09-29T04:26:08;4.30;;;2.85;;
20619;SDS011;10469;42.720;23.252;2022-09-29T04:28:34;5.55;;;3.17;;
20619;SDS011;10469;42.720;23.252;2022-09-29T04:31:01;8.73;;;3.25;;
20619;SDS011;10469;42.720;23.252;2022-09-29T04:33:26;9.32;;;3.30;;
20619;SDS011;10469;42.720;23.252;2022-09-29T04:35:54;7.50;;;3.53;;
20619;SDS011;10469;42.720;23.252;2022-09-29T04:38:20;11.45;;;3.67;;
20619;SDS011;10469;42.720;23.252;2022-09-29T04:40:46;19.60;;;5.20;;
20619;SDS011;10469;42.720;23.252;2022-09-29T04:43:12;19.27;;;4.97;;
20619;SDS011;10469;42.720;23.252;2022-09-29T04:45:38;24.10;;;4.20;;
20619;SDS011;10469;42.720;23.252;2022-09-29T04:48:03;17.20;;;5.32;;
20619;SDS011;10469;42.720;23.252;2022-09-29T04:50:29;15.32;;;6.45;;
20619;SDS011;10469;42.720;23.252;2022-09-29T04:52:55;13.38;;;4.25;;
20619;SDS011;10469;42.720;23.252;2022-09-29T04:55:21;10.55;;;4.68;;
20619;SDS011;10469;42.720;23.252;2022-09-29T04:57:47;13.82;;;4.25;;
20619;SDS011;10469;42.720;23.252;2022-09-29T05:00:13;14.02;;;4.03;;
20619;SDS011;10469;42.720;23.252;2022-09-29T05:02:39;12.93;;;5.68;;
20619;SDS011;10469;42.720;23.252;2022-09-29T05:05:05;28.00;;;5.63;;
20619;SDS011;10469;42.720;23.252;2022-09-29T05:07:34;12.45;;;6.22;;
20619;SDS011;10469;42.720;23.252;2022-09-29T05:10:01;16.95;;;5.45;;
20619;SDS011;10469;42.720;23.252;2022-09-29T05:12:26;9.55;;;4.13;;
20619;SDS011;10469;42.720;23.252;2022-09-29T05:14:52;16.23;;;4.20;;
20619;SDS011;10469;42.720;23.252;2022-09-29T05:17:17;13.13;;;4.63;;
20619;SDS011;10469;42.720;23.252;2022-09-29T05:19:43;13.77;;;4.78;;
20619;SDS011;10469;42.720;23.252;2022-09-29T05:22:08;17.60;;;4.30;;
20619;SDS011;10469;42.720;23.252;2022-09-29T05:24:34;17.33;;;4.72;;
20619;SDS011;10469;42.720;23.252;2022-09-29T05:26:59;13.02;;;4.18;;
20619;SDS011;10469;42.720;23.252;2022-09-29T05:29:25;17.40;;;5.13;;
20619;SDS011;10469;42.720;23.252;2022-09-29T05:31:50;13.98;;;4.78;;
20619;SDS011;10469;42.720;23.252;2022-09-29T05:34:16;19.83;;;5.10;;
20619;SDS011;10469;42.720;23.252;2022-09-29T05:36:42;15.70;;;4.78;;
20619;SDS011;10469;42.720;23.252;2022-09-29T05:39:08;16.75;;;5.07;;
20619;SDS011;10469;42.720;23.252;2022-09-29T05:41:34;13.50;;;5.45;;
20619;SDS011;10469;42.720;23.252;2022-09-29T05:44:00;15.32;;;5.18;;
20619;SDS011;10469;42.720;23.252;2022-09-29T05:46:25;24.33;;;4.35;;
20619;SDS011;10469;42.720;23.252;2022-09-29T05:48:51;9.63;;;4.20;;
20619;SDS011;10469;42.720;23.252;2022-09-29T05:51:19;14.07;;;4.50;;
20619;SDS011;10469;42.720;23.252;2022-09-29T05:53:46;15.88;;;5.82;;
20619;SDS011;10469;42.720;23.252;2022-09-29T05:56:13;24.33;;;6.10;;
20619;SDS011;10469;42.720;23.252;2022-09-29T05:58:40;11.90;;;5.43;;
20619;SDS011;10469;42.720;23.252;2022-09-29T06:01:07;19.10;;;5.88;;
20619;SDS011;10469;42.720;23.252;2022-09-29T06:03:34;17.35;;;5.20;;
20619;SDS011;10469;42.720;23.252;2022-09-29T06:06:17;23.27;;;4.47;;
20619;SDS011;10469;42.720;23.252;2022-09-29T06:08:44;14.88;;;4.30;;
20619;SDS011;10469;42.720;23.252;2022-09-29T06:11:14;8.90;;;4.22;;
20619;SDS011;10469;42.720;23.252;2022-09-29T06:13:44;12.05;;;5.10;;
20619;SDS011;10469;42.720;23.252;2022-09-29T06:16:11;10.95;;;3.47;;
20619;SDS011;10469;42.720;23.252;2022-09-29T06:18:38;10.25;;;3.95;;
20619;SDS011;10469;42.720;23.252;2022-09-29T06:21:07;9.90;;;4.15;;
20619;SDS011;10469;42.720;23.252;2022-09-29T06:23:34;11.57;;;3.58;;
20619;SDS011;10469;42.720;23.252;2022-09-29T06:26:02;14.95;;;4.95;;
20619;SDS011;10469;42.720;23.252;2022-09-29T06:28:31;13.52;;;4.22;;
20619;SDS011;10469;42.720;23.252;2022-09-29T06:30:57;13.20;;;4.03;;
20619;SDS011;10469;42.720;23.252;2022-09-29T06:33:27;14.07;;;3.80;;
20619;SDS011;10469;42.720;23.252;2022-09-29T06:35:54;12.93;;;4.60;;
20619;SDS011;10469;42.720;23.252;2022-09-29T06:38:39;15.23;;;4.60;;
20619;SDS011;10469;42.720;23.252;2022-09-29T06:41:04;19.85;;;4.20;;
20619;SDS011;10469;42.720;23.252;2022-09-29T06:43:31;6.60;;;3.35;;
20619;SDS011;10469;42.720;23.252;2022-09-29T06:45:56;10.77;;;3.72;;
20619;SDS011;10469;42.720;23.252;2022-09-29T06:48:22;14.32;;;3.70;;
20619;SDS011;10469;42.720;23.252;2022-09-29T06:50:47;7.25;;;3.00;;
20619;SDS011;10469;42.720;23.252;2022-09-29T06:53:13;7.15;;;3.00;;
20619;SDS011;10469;42.720;23.252;2022-09-29T06:55:38;16.52;;;4.00;;
20619;SDS011;10469;42.720;23.252;2022-09-29T06:58:04;8.43;;;3.10;;
20619;SDS011;10469;42.720;23.252;2022-09-29T07:00:30;11.70;;;3.10;;
20619;SDS011;10469;42.720;23.252;2022-09-29T07:02:57;11.65;;;2.80;;
20619;SDS011;10469;42.720;23.252;2022-09-29T07:05:22;12.13;;;4.10;;
20619;SDS011;10469;42.720;23.252;2022-09-29T07:07:48;8.68;;;2.90;;
20619;SDS011;10469;42.720;23.252;2022-09-29T07:10:13;11.00;;;2.55;;
20619;SDS011;10469;42.720;23.252;2022-09-29T07:12:40;9.43;;;2.85;;
20619;SDS011;10469;42.720;23.252;2022-09-29T07:15:05;18.13;;;2.40;;
20619;SDS011;10469;42.720;23.252;2022-09-29T07:17:31;8.65;;;2.78;;
20619;SDS011;10469;42.720;23.252;2022-09-29T07:19:57;11.02;;;2.53;;
20619;SDS011;10469;42.720;23.252;2022-09-29T07:22:23;12.40;;;2.60;;
20619;SDS011;10469;42.720;23.252;2022-09-29T07:24:48;11.82;;;2.80;;
20619;SDS011;10469;42.720;23.252;2022-09-29T07:27:17;13.75;;;2.47;;
20619;SDS011;10469;42.720;23.252;2022-09-29T07:29:50;8.60;;;2.83;;
20619;SDS011;10469;42.720;23.252;2022-09-29T07:32:16;7.50;;;2.47;;
20619;SDS011;10469;42.720;23.252;2022-09-29T07:34:42;6.70;;;2.70;;
20619;SDS011;10469;42.720;23.252;2022-09-29T07:37:08;11.55;;;3.20;;
20619;SDS011;10469;42.720;23.252;2022-09-29T07:39:34;9.18;;;3.30;;
20619;SDS011;10469;42.720;23.252;2022-09-29T07:41:59;11.60;;;3.15;;
20619;SDS011;10469;42.720;23.252;2022-09-29T07:44:25;11.20;;;3.53;;
20619;SDS011;10469;42.720;23.252;2022-09-29T07:46:50;18.25;;;3.90;;
20619;SDS011;10469;42.720;23.252;2022-09-29T07:49:16;17.80;;;3.70;;
20619;SDS011;10469;42.720;23.252;2022-09-29T07:51:42;20.42;;;3.38;;
20619;SDS011;10469;42.720;23.252;2022-09-29T07:54:07;17.30;;;3.67;;
20619;SDS011;10469;42.720;23.252;2022-09-29T07:56:33;17.88;;;3.95;;
20619;SDS011;10469;42.720;23.252;2022-09-29T07:58:59;20.20;;;4.72;;
20619;SDS011;10469;42.720;23.252;2022-09-29T08:01:26;18.00;;;3.83;;
20619;SDS011;10469;42.720;23.252;2022-09-29T08:03:53;21.20;;;4.13;;
20619;SDS011;10469;42.720;23.252;2022-09-29T08:06:20;17.35;;;3.60;;
20619;SDS011;10469;42.720;23.252;2022-09-29T08:08:46;9.05;;;3.58;;
20619;SDS011;10469;42.720;23.252;2022-09-29T08:11:14;14.35;;;3.90;;
20619;SDS011;10469;42.720;23.252;2022-09-29T08:13:41;22.67;;;3.70;;
20619;SDS011;10469;42.720;23.252;2022-09-29T08:16:09;16.27;;;3.30;;
20619;SDS011;10469;42.720;23.252;2022-09-29T08:18:36;17.38;;;3.30;;
20619;SDS011;10469;42.720;23.252;2022-09-29T08:21:02;14.35;;;4.00;;
20619;SDS011;10469;42.720;23.252;2022-09-29T08:23:28;19.10;;;4.90;;
20619;SDS011;10469;42.720;23.252;2022-09-29T08:26:06;19.45;;;4.00;;
20619;SDS011;10469;42.720;23.252;2022-09-29T08:28:34;16.83;;;3.75;;
20619;SDS011;10469;42.720;23.252;2022-09-29T08:31:01;14.98;;;3.35;;
20619;SDS011;10469;42.720;23.252;2022-09-29T08:33:45;18.70;;;3.45;;
20619;SDS011;10469;42.720;23.252;2022-09-29T08:36:12;15.77;;;4.30;;
20619;SDS011;10469;42.720;23.252;2022-09-29T08:38:41;15.55;;;4.18;;
20619;SDS011;10469;42.720;23.252;2022-09-29T08:41:19;11.55;;;3.40;;
20619;SDS011;10469;42.720;23.252;2022-09-29T08:44:03;12.48;;;3.88;;
20619;SDS011;10469;42.720;23.252;2022-09-29T08:46:38;8.50;;;2.90;;
20619;SDS011;10469;42.720;23.252;2022-09-29T08:49:10;16.95;;;3.17;;
20619;SDS011;10469;42.720;23.252;2022-09-29T08:51:46;14.20;;;3.80;;
20619;SDS011;10469;42.720;23.252;2022-09-29T08:54:15;13.70;;;3.45;;
20619;SDS011;10469;42.720;23.252;2022-09-29T08:56:48;9.57;;;3.10;;
20619;SDS011;10469;42.720;23.252;2022-09-29T08:59:14;9.23;;;3.05;;
20619;SDS011;10469;42.720;23.252;2022-09-29T09:04:21;8.30;;;2.90;;
20619;SDS011;10469;42.720;23.252;2022-09-29T09:09:58;4.15;;;2.00;;
20619;SDS011;10469;42.720;23.252;2022-09-29T09:12:53;8.63;;;2.10;;
20619;SDS011;10469;42.720;23.252;2022-09-29T09:20:58;4.45;;;1.83;;
20619;SDS011;10469;42.720;23.252;2022-09-29T09:26:05;7.63;;;2.05;;
20619;SDS011;10469;42.720;23.252;2022-09-29T09:28:34;11.38;;;2.47;;
20619;SDS011;10469;42.720;23.252;2022-09-29T09:33:40;6.22;;;2.17;;
20619;SDS011;10469;42.720;23.252;2022-09-29T09:36:35;6.80;;;2.25;;
20619;SDS011;10469;42.720;23.252;2022-09-29T09:41:39;5.35;;;1.65;;
20619;SDS011;10469;42.720;23.252;2022-09-29T09:46:57;8.80;;;1.98;;
20619;SDS011;10469;42.720;23.252;2022-09-29T09:49:40;2.45;;;1.40;;
20619;SDS011;10469;42.720;23.252;2022-09-29T09:54:52;6.32;;;1.90;;
20619;SDS011;10469;42.720;23.252;2022-09-29T10:02:44;7.50;;;1.60;;
20619;SDS011;10469;42.720;23.252;2022-09-29T10:05:18;5.90;;;2.22;;
20619;SDS011;10469;42.720;23.252;2022-09-29T10:07:48;4.00;;;1.58;;
20619;SDS011;10469;42.720;23.252;2022-09-29T10:10:15;4.72;;;1.98;;
20619;SDS011;10469;42.720;23.252;2022-09-29T10:12:43;5.60;;;1.90;;
20619;SDS011;10469;42.720;23.252;2022-09-29T10:21:04;2.35;;;1.50;;
20619;SDS011;10469;42.720;23.252;2022-09-29T10:23:50;5.47;;;1.80;;
20619;SDS011;10469;42.720;23.252;2022-09-29T10:26:17;4.53;;;1.70;;
20619;SDS011;10469;42.720;23.252;2022-09-29T10:28:51;7.80;;;1.80;;
20619;SDS011;10469;42.720;23.252;2022-09-29T10:33:57;7.38;;;2.15;;
20619;SDS011;10469;42.720;23.252;2022-09-29T10:36:31;10.70;;;1.80;;
20619;SDS011;10469;42.720;23.252;2022-09-29T10:38:58;4.73;;;2.07;;
20619;SDS011;10469;42.720;23.252;2022-09-29T10:41:24;5.00;;;1.75;;
20619;SDS011;10469;42.720;23.252;2022-09-29T10:43:50;2.72;;;1.50;;
20619;SDS011;10469;42.720;23.252;2022-09-29T10:46:32;7.45;;;2.40;;
20619;SDS011;10469;42.720;23.252;2022-09-29T10:49:07;2.95;;;1.45;;
20619;SDS011;10469;42.720;23.252;2022-09-29T10:51:56;8.30;;;2.22;;
20619;SDS011;10469;42.720;23.252;2022-09-29T10:54:23;3.38;;;1.70;;
20619;SDS011;10469;42.720;23.252;2022-09-29T10:56:51;2.70;;;1.90;;
20619;SDS011;10469;42.720;23.252;2022-09-29T10:59:17;3.85;;;1.50;;
20619;SDS011;10469;42.720;23.252;2022-09-29T11:01:50;8.07;;;2.70;;
20619;SDS011;10469;42.720;23.252;2022-09-29T11:04:23;3.80;;;1.90;;
20619;SDS011;10469;42.720;23.252;2022-09-29T11:06:53;2.47;;;1.40;;
20619;SDS011;10469;42.720;23.252;2022-09-29T11:17:03;6.22;;;1.70;;
20619;SDS011;10469;42.720;23.252;2022-09-29T11:19:44;3.03;;;1.50;;
20619;SDS011;10469;42.720;23.252;2022-09-29T11:27:25;4.68;;;1.65;;
20619;SDS011;10469;42.720;23.252;2022-09-29T11:35:32;4.30;;;1.70;;
20619;SDS011;10469;42.720;23.252;2022-09-29T11:41:04;6.13;;;1.70;;
20619;SDS011;10469;42.720;23.252;2022-09-29T11:43:46;4.20;;;1.73;;
20619;SDS011;10469;42.720;23.252;2022-09-29T11:57:13;9.88;;;1.90;;
20619;SDS011;10469;42.720;23.252;2022-09-29T12:13:59;8.68;;;1.95;;
20619;SDS011;10469;42.720;23.252;2022-09-29T12:16:31;4.65;;;2.00;;
20619;SDS011;10469;42.720;23.252;2022-09-29T12:19:11;3.03;;;1.80;;
20619;SDS011;10469;42.720;23.252;2022-09-29T12:21:47;3.60;;;1.90;;
20619;SDS011;10469;42.720;23.252;2022-09-29T12:27:39;4.68;;;2.08;;
20619;SDS011;10469;42.720;23.252;2022-09-29T12:32:50;3.22;;;2.28;;
20619;SDS011;10469;42.720;23.252;2022-09-29T12:38:11;5.18;;;2.17;;
20619;SDS011;10469;42.720;23.252;2022-09-29T12:41:17;4.28;;;2.30;;
20619;SDS011;10469;42.720;23.252;2022-09-29T12:46:26;5.22;;;2.20;;
20619;SDS011;10469;42.720;23.252;2022-09-29T12:51:53;4.28;;;2.10;;
20619;SDS011;10469;42.720;23.252;2022-09-29T12:54:41;9.93;;;2.35;;
20619;SDS011;10469;42.720;23.252;2022-09-29T12:57:14;2.95;;;1.65;;
20619;SDS011;10469;42.720;23.252;2022-09-29T13:27:41;5.30;;;2.25;;
20619;SDS011;10469;42.720;23.252;2022-09-29T13:30:27;7.10;;;2.03;;
20619;SDS011;10469;42.720;23.252;2022-09-29T13:35:26;6.70;;;1.90;;
20619;SDS011;10469;42.720;23.252;2022-09-29T13:37:53;7.93;;;2.50;;
20619;SDS011;10469;42.720;23.252;2022-09-29T13:40:27;5.75;;;2.05;;
20619;SDS011;10469;42.720;23.252;2022-09-29T13:42:54;7.38;;;2.10;;
20619;SDS011;10469;42.720;23.252;2022-09-29T13:47:57;3.78;;;1.92;;
20619;SDS011;10469;42.720;23.252;2022-09-29T13:58:26;4.88;;;2.20;;
20619;SDS011;10469;42.720;23.252;2022-09-29T14:01:04;4.38;;;1.92;;
20619;SDS011;10469;42.720;23.252;2022-09-29T14:03:32;3.05;;;2.10;;
20619;SDS011;10469;42.720;23.252;2022-09-29T14:08:43;4.43;;;1.88;;
20619;SDS011;10469;42.720;23.252;2022-09-29T14:16:26;8.98;;;2.33;;
20619;SDS011;10469;42.720;23.252;2022-09-29T14:30:00;10.30;;;2.80;;
20619;SDS011;10469;42.720;23.252;2022-09-29T14:35:28;7.30;;;2.70;;
20619;SDS011;10469;42.720;23.252;2022-09-29T14:37:59;7.25;;;2.72;;
20619;SDS011;10469;42.720;23.252;2022-09-29T14:40:38;5.13;;;2.45;;
20619;SDS011;10469;42.720;23.252;2022-09-29T14:43:17;5.97;;;2.10;;
20619;SDS011;10469;42.720;23.252;2022-09-29T14:48:52;5.50;;;3.00;;
20619;SDS011;10469;42.720;23.252;2022-09-29T14:51:48;3.40;;;2.08;;
20619;SDS011;10469;42.720;23.252;2022-09-29T14:54:32;5.13;;;2.67;;
20619;SDS011;10469;42.720;23.252;2022-09-29T15:03:07;7.75;;;3.10;;
20619;SDS011;10469;42.720;23.252;2022-09-29T15:05:34;0.35;;;0.30;;
20619;SDS011;10469;42.720;23.252;2022-09-29T15:08:00;0.50;;;0.50;;
20619;SDS011;10469;42.720;23.252;2022-09-29T15:10:28;0.20;;;0.20;;
20619;SDS011;10469;42.720;23.252;2022-09-29T15:16:10;0.30;;;0.30;;
20619;SDS011;10469;42.720;23.252;2022-09-29T15:21:25;0.50;;;0.50;;
20619;SDS011;10469;42.720;23.252;2022-09-29T15:26:38;0.47;;;0.47;;
20619;SDS011;10469;42.720;23.252;2022-09-29T15:29:05;0.57;;;0.57;;
20619;SDS011;10469;42.720;23.252;2022-09-29T15:31:33;0.40;;;0.40;;
20619;SDS011;10469;42.720;23.252;2022-09-29T15:34:00;0.88;;;0.85;;
20619;SDS011;10469;42.720;23.252;2022-09-29T15:36:30;0.88;;;0.88;;
20619;SDS011;10469;42.720;23.252;2022-09-29T15:41:59;0.70;;;0.70;;
20619;SDS011;10469;42.720;23.252;2022-09-29T15:44:27;0.30;;;0.30;;
20619;SDS011;10469;42.720;23.252;2022-09-29T15:46:57;0.38;;;0.38;;
20619;SDS011;10469;42.720;23.252;2022-09-29T15:49:23;0.65;;;0.65;;
20619;SDS011;10469;42.720;23.252;2022-09-29T15:56:49;0.43;;;0.43;;
20619;SDS011;10469;42.720;23.252;2022-09-29T15:59:38;6.28;;;3.38;;
20619;SDS011;10469;42.720;23.252;2022-09-29T16:02:15;6.80;;;3.75;;
20619;SDS011;10469;42.720;23.252;2022-09-29T16:05:16;13.18;;;4.63;;
20619;SDS011;10469;42.720;23.252;2022-09-29T16:07:48;10.38;;;4.15;;
20619;SDS011;10469;42.720;23.252;2022-09-29T16:10:18;12.07;;;4.45;;
20619;SDS011;10469;42.720;23.252;2022-09-29T16:12:53;7.57;;;4.57;;
20619;SDS011;10469;42.720;23.252;2022-09-29T16:15:29;13.23;;;4.38;;
20619;SDS011;10469;42.720;23.252;2022-09-29T16:17:57;11.05;;;5.20;;
20619;SDS011;10469;42.720;23.252;2022-09-29T16:20:27;13.60;;;5.75;;
20619;SDS011;10469;42.720;23.252;2022-09-29T16:22:54;15.60;;;5.53;;
20619;SDS011;10469;42.720;23.252;2022-09-29T16:25:24;11.43;;;5.60;;
20619;SDS011;10469;42.720;23.252;2022-09-29T16:27:59;8.10;;;5.15;;
20619;SDS011;10469;42.720;23.252;2022-09-29T16:30:32;10.70;;;4.68;;
20619;SDS011;10469;42.720;23.252;2022-09-29T16:33:14;9.95;;;4.13;;
20619;SDS011;10469;42.720;23.252;2022-09-29T16:43:34;5.85;;;3.42;;
20619;SDS011;10469;42.720;23.252;2022-09-29T16:46:02;8.63;;;4.07;;
20619;SDS011;10469;42.720;23.252;2022-09-29T16:48:35;9.30;;;4.68;;
20619;SDS011;10469;42.720;23.252;2022-09-29T16:51:12;9.75;;;4.40;;
20619;SDS011;10469;42.720;23.252;2022-09-29T16:53:40;11.25;;;5.10;;
20619;SDS011;10469;42.720;23.252;2022-09-29T16:56:09;9.35;;;5.18;;
20619;SDS011;10469;42.720;23.252;2022-09-29T16:58:45;9.00;;;5.57;;
20619;SDS011;10469;42.720;23.252;2022-09-29T17:01:35;10.55;;;4.45;;
20619;SDS011;10469;42.720;23.252;2022-09-29T17:04:00;9.35;;;4.45;;
20619;SDS011;10469;42.720;23.252;2022-09-29T17:06:26;7.80;;;3.90;;
20619;SDS011;10469;42.720;23.252;2022-09-29T17:08:53;0.65;;;0.65;;
20619;SDS011;10469;42.720;23.252;2022-09-29T17:11:18;0.75;;;0.65;;
20619;SDS011;10469;42.720;23.252;2022-09-29T17:13:44;5.10;;;1.63;;
20619;SDS011;10469;42.720;23.252;2022-09-29T17:16:09;0.40;;;0.40;;
20619;SDS011;10469;42.720;23.252;2022-09-29T17:18:36;2.90;;;1.48;;
20619;SDS011;10469;42.720;23.252;2022-09-29T17:21:02;0.35;;;0.35;;
20619;SDS011;10469;42.720;23.252;2022-09-29T17:23:27;0.40;;;0.40;;
20619;SDS011;10469;42.720;23.252;2022-09-29T17:25:54;0.40;;;0.40;;
20619;SDS011;10469;42.720;23.252;2022-09-29T17:28:39;0.80;;;0.70;;
20619;SDS011;10469;42.720;23.252;2022-09-29T17:31:04;0.30;;;0.30;;
20619;SDS011;10469;42.720;23.252;2022-09-29T17:33:36;0.80;;;0.80;;
20619;SDS011;10469;42.720;23.252;2022-09-29T17:36:06;1.65;;;0.80;;
20619;SDS011;10469;42.720;23.252;2022-09-29T17:38:37;0.38;;;0.38;;
20619;SDS011;10469;42.720;23.252;2022-09-29T17:41:03;0.55;;;0.55;;
20619;SDS011;10469;42.720;23.252;2022-09-29T17:43:30;0.40;;;0.40;;
20619;SDS011;10469;42.720;23.252;2022-09-29T17:45:56;0.45;;;0.45;;
20619;SDS011;10469;42.720;23.252;2022-09-29T17:48:23;0.40;;;0.40;;
20619;SDS011;10469;42.720;23.252;2022-09-29T17:50:50;0.57;;;0.57;;
20619;SDS011;10469;42.720;23.252;2022-09-29T17:53:19;2.38;;;0.95;;
20619;SDS011;10469;42.720;23.252;2022-09-29T17:55:45;0.55;;;0.55;;
20619;SDS011;10469;42.720;23.252;2022-09-29T17:58:13;0.65;;;0.65;;
20619;SDS011;10469;42.720;23.252;2022-09-29T18:00:41;0.38;;;0.38;;
20619;SDS011;10469;42.720;23.252;2022-09-29T18:03:08;0.98;;;0.93;;
20619;SDS011;10469;42.720;23.252;2022-09-29T18:05:36;1.88;;;0.60;;
20619;SDS011;10469;42.720;23.252;2022-09-29T18:08:03;2.95;;;1.20;;
20619;SDS011;10469;42.720;23.252;2022-09-29T18:10:38;0.95;;;0.95;;
20619;SDS011;10469;42.720;23.252;2022-09-29T18:13:06;0.88;;;0.88;;
20619;SDS011;10469;42.720;23.252;2022-09-29T18:15:32;1.98;;;1.17;;
20619;SDS011;10469;42.720;23.252;2022-09-29T18:17:59;1.08;;;0.98;;
20619;SDS011;10469;42.720;23.252;2022-09-29T18:20:27;0.73;;;0.73;;
20619;SDS011;10469;42.720;23.252;2022-09-29T18:22:56;0.40;;;0.40;;
20619;SDS011;10469;42.720;23.252;2022-09-29T18:25:24;2.35;;;1.63;;
20619;SDS011;10469;42.720;23.252;2022-09-29T18:27:51;4.47;;;1.67;;
20619;SDS011;10469;42.720;23.252;2022-09-29T18:30:22;0.73;;;0.73;;
20619;SDS011;10469;42.720;23.252;2022-09-29T18:32:51;5.35;;;1.75;;
20619;SDS011;10469;42.720;23.252;2022-09-29T18:35:20;1.45;;;1.35;;
20619;SDS011;10469;42.720;23.252;2022-09-29T18:37:48;1.65;;;1.55;;